Time;durP1;ratioP1;P1;durP2;ratioP2;P2;SDS_P1;SDS_P2;PMS_P1;PMS_P2;Temp;Humidity;BMP_temperature;BMP_pressure;BME280_temperature;BME280_humidity;BME280_pressure;Samples;Min_cycle;Max_cycle;Signal;HPM_P1;HPM_P2
2022/12/31 00:02:06;;;;;;;617.40;129.47;;;;;;;;;;4985776;28;20307;-54
2022/12/31 00:04:32;;;;;;;464.67;93.13;;;;;;;;;;4984221;28;20181;-55
2022/12/31 00:06:58;;;;;;;567.17;125.00;;;;;;;;;;4986950;28;20702;-54
2022/12/31 00:09:24;;;;;;;549.57;115.97;;;;;;;;;;4975538;28;20565;-55
2022/12/31 00:11:50;;;;;;;526.23;112.17;;;;;;;;;;4981617;28;20243;-55
2022/12/31 00:14:16;;;;;;;597.63;129.13;;;;;;;;;;4983291;28;20300;-53
2022/12/31 00:16:42;;;;;;;524.17;110.80;;;;;;;;;;4989584;28;20521;-54
2022/12/31 00:19:10;;;;;;;564.83;123.07;;;;;;;;;;4989917;28;20225;-54
2022/12/31 00:21:36;;;;;;;559.43;115.53;;;;;;;;;;5001752;28;20332;-54
2022/12/31 00:24:02;;;;;;;613.13;134.87;;;;;;;;;;4988449;28;20437;-55
2022/12/31 00:26:29;;;;;;;623.47;133.03;;;;;;;;;;4985889;28;20428;-54
2022/12/31 00:28:56;;;;;;;527.40;109.10;;;;;;;;;;4983644;28;20315;-54
2022/12/31 00:31:23;;;;;;;568.30;123.03;;;;;;;;;;4971463;28;20308;-54
2022/12/31 00:33:50;;;;;;;555.30;119.50;;;;;;;;;;4977833;28;21139;-55
2022/12/31 00:36:20;;;;;;;630.73;134.07;;;;;;;;;;4973114;28;20456;-54
2022/12/31 00:38:47;;;;;;;591.87;126.97;;;;;;;;;;4968238;28;20993;-55
2022/12/31 00:41:14;;;;;;;594.10;131.27;;;;;;;;;;4982777;28;20224;-57
2022/12/31 00:43:40;;;;;;;526.70;119.77;;;;;;;;;;4980367;28;20205;-54
2022/12/31 00:46:07;;;;;;;530.37;110.77;;;;;;;;;;4973855;28;20184;-55
2022/12/31 00:48:34;;;;;;;523.43;112.47;;;;;;;;;;4968210;28;20357;-55
2022/12/31 00:51:01;;;;;;;642.47;138.97;;;;;;;;;;4973546;28;20364;-54
2022/12/31 00:53:27;;;;;;;593.37;128.07;;;;;;;;;;4975367;28;20301;-56
2022/12/31 00:55:59;;;;;;;604.43;129.50;;;;;;;;;;4975974;28;20233;-55
2022/12/31 00:58:25;;;;;;;492.50;103.87;;;;;;;;;;4975247;28;20177;-54
2022/12/31 01:00:51;;;;;;;588.27;131.67;;;;;;;;;;4975934;28;20224;-54
2022/12/31 01:03:17;;;;;;;637.53;142.57;;;;;;;;;;4962191;28;20225;-55
2022/12/31 01:05:43;;;;;;;649.00;141.53;;;;;;;;;;4970854;28;20270;-55
2022/12/31 01:08:09;;;;;;;600.57;129.13;;;;;;;;;;4969163;28;20270;-54
2022/12/31 01:13:20;;;;;;;605.63;142.87;;;;;;;;;;4977987;28;20430;-54
2022/12/31 01:15:46;;;;;;;501.13;95.33;;;;;;;;;;4969740;28;20216;-54
2022/12/31 01:18:12;;;;;;;614.27;151.37;;;;;;;;;;4973725;28;20818;-55
2022/12/31 01:20:38;;;;;;;502.80;103.43;;;;;;;;;;4969075;28;20285;-55
2022/12/31 01:23:05;;;;;;;544.53;109.27;;;;;;;;;;4983909;28;20256;-54
2022/12/31 01:25:34;;;;;;;524.37;113.50;;;;;;;;;;4989800;28;20479;-55
2022/12/31 01:28:00;;;;;;;629.27;131.97;;;;;;;;;;4984948;28;20578;-55
2022/12/31 01:30:26;;;;;;;629.10;146.10;;;;;;;;;;4990587;28;20339;-55
2022/12/31 01:32:52;;;;;;;522.40;113.47;;;;;;;;;;4987737;28;20332;-53
2022/12/31 01:35:18;;;;;;;773.10;193.07;;;;;;;;;;4980674;28;20338;-54
2022/12/31 01:37:45;;;;;;;574.63;133.10;;;;;;;;;;4972480;28;20799;-54
2022/12/31 01:40:11;;;;;;;654.07;152.37;;;;;;;;;;4972818;28;20177;-54
2022/12/31 01:42:37;;;;;;;538.47;118.63;;;;;;;;;;4979391;28;20586;-54
2022/12/31 01:45:03;;;;;;;536.90;115.30;;;;;;;;;;4967758;28;20730;-54
2022/12/31 01:47:33;;;;;;;602.87;125.30;;;;;;;;;;4972585;28;20475;-54
2022/12/31 01:50:03;;;;;;;547.20;120.37;;;;;;;;;;4976640;28;20228;-54
2022/12/31 01:52:36;;;;;;;549.03;108.70;;;;;;;;;;4978620;28;20276;-55
2022/12/31 01:55:12;;;;;;;615.60;136.43;;;;;;;;;;4975949;28;20678;-54
2022/12/31 01:57:39;;;;;;;613.27;129.33;;;;;;;;;;4976271;28;20219;-54
2022/12/31 02:00:05;;;;;;;539.90;123.20;;;;;;;;;;4968689;28;20345;-54
2022/12/31 02:02:31;;;;;;;627.77;140.33;;;;;;;;;;4974436;28;20236;-55
2022/12/31 02:04:59;;;;;;;565.63;124.27;;;;;;;;;;4971947;28;20248;-55
2022/12/31 02:07:25;;;;;;;653.67;144.60;;;;;;;;;;4968632;28;20205;-55
2022/12/31 02:09:51;;;;;;;568.27;125.97;;;;;;;;;;4964997;28;20222;-54
2022/12/31 02:12:17;;;;;;;591.60;119.90;;;;;;;;;;4974169;28;20248;-54
2022/12/31 02:14:46;;;;;;;521.77;109.87;;;;;;;;;;4968402;28;20525;-54
2022/12/31 02:17:18;;;;;;;505.93;106.97;;;;;;;;;;4973193;28;20217;-55
2022/12/31 02:19:44;;;;;;;509.87;104.20;;;;;;;;;;4969516;28;20193;-54
2022/12/31 02:22:29;;;;;;;476.80;101.93;;;;;;;;;;4966085;28;20212;-55
2022/12/31 02:24:58;;;;;;;609.40;134.03;;;;;;;;;;4974701;28;20228;-54
2022/12/31 02:27:41;;;;;;;611.43;141.33;;;;;;;;;;4968694;28;20204;-54
2022/12/31 02:30:13;;;;;;;659.70;157.50;;;;;;;;;;4958562;28;20216;-54
2022/12/31 02:32:39;;;;;;;565.17;125.93;;;;;;;;;;4979654;28;20221;-55
2022/12/31 02:35:11;;;;;;;649.13;149.23;;;;;;;;;;4968861;28;20605;-54
2022/12/31 02:37:39;;;;;;;522.03;108.30;;;;;;;;;;4976063;28;20185;-54
2022/12/31 02:40:07;;;;;;;503.30;102.83;;;;;;;;;;4975097;28;20188;-54
2022/12/31 02:42:33;;;;;;;594.63;139.20;;;;;;;;;;4974225;28;20405;-54
2022/12/31 02:44:59;;;;;;;592.87;137.73;;;;;;;;;;4972391;28;20205;-54
2022/12/31 02:47:47;;;;;;;625.77;140.97;;;;;;;;;;4962060;28;20709;-55
2022/12/31 02:50:31;;;;;;;574.07;120.57;;;;;;;;;;4969156;28;20275;-55
2022/12/31 02:53:03;;;;;;;635.07;139.50;;;;;;;;;;4967034;28;20436;-55
2022/12/31 02:55:48;;;;;;;607.23;130.87;;;;;;;;;;4967194;28;20721;-55
2022/12/31 03:06:54;;;;;;;565.97;121.90;;;;;;;;;;4967590;28;20238;-54
2022/12/31 03:09:20;;;;;;;602.77;132.93;;;;;;;;;;4975007;28;20305;-54
2022/12/31 03:14:31;;;;;;;568.73;122.13;;;;;;;;;;4967013;28;20223;-54
2022/12/31 03:16:57;;;;;;;505.40;109.33;;;;;;;;;;4969761;28;20352;-55
2022/12/31 03:22:26;;;;;;;575.80;128.73;;;;;;;;;;4974000;28;20737;-54
2022/12/31 03:27:37;;;;;;;591.70;134.73;;;;;;;;;;4966177;28;20220;-54
2022/12/31 03:30:04;;;;;;;587.93;130.67;;;;;;;;;;4971213;28;20307;-54
2022/12/31 03:32:30;;;;;;;542.80;115.03;;;;;;;;;;4974682;28;20360;-55
2022/12/31 03:34:56;;;;;;;677.40;157.60;;;;;;;;;;4962298;28;20558;-54
2022/12/31 03:37:22;;;;;;;504.67;111.17;;;;;;;;;;4977775;28;20407;-55
2022/12/31 03:39:48;;;;;;;562.40;131.10;;;;;;;;;;4966360;28;20300;-54
2022/12/31 03:42:14;;;;;;;582.10;137.63;;;;;;;;;;4975577;28;20232;-53
2022/12/31 03:44:40;;;;;;;600.97;144.67;;;;;;;;;;4982513;28;20209;-55
2022/12/31 03:47:06;;;;;;;536.23;117.93;;;;;;;;;;4980240;28;20280;-55
2022/12/31 03:49:32;;;;;;;595.70;135.70;;;;;;;;;;4970943;28;20208;-55
2022/12/31 03:51:58;;;;;;;570.23;131.90;;;;;;;;;;4965778;28;20201;-55
2022/12/31 03:54:24;;;;;;;571.90;127.33;;;;;;;;;;4976305;28;20216;-54
2022/12/31 03:56:50;;;;;;;602.80;143.20;;;;;;;;;;4971241;28;20225;-55
2022/12/31 03:59:16;;;;;;;627.67;153.87;;;;;;;;;;4962331;28;20221;-54
2022/12/31 04:01:42;;;;;;;574.87;132.57;;;;;;;;;;4977895;28;20473;-54
2022/12/31 04:04:09;;;;;;;609.53;142.17;;;;;;;;;;4974150;28;20253;-55
2022/12/31 04:06:35;;;;;;;415.27;120.40;;;;;;;;;;4986147;23;20279;-68
2022/12/31 04:09:01;;;;;;;445.40;126.43;;;;;;;;;;4963946;28;20296;-69
2022/12/31 04:11:27;;;;;;;390.53;111.27;;;;;;;;;;4971880;28;20708;-68
2022/12/31 04:13:53;;;;;;;397.93;105.20;;;;;;;;;;5002275;28;20340;-69
2022/12/31 04:16:18;;;;;;;434.10;111.47;;;;;;;;;;5003384;28;20177;-68
2022/12/31 04:18:45;;;;;;;385.53;103.20;;;;;;;;;;4991661;28;20673;-68
2022/12/31 04:21:11;;;;;;;423.03;122.67;;;;;;;;;;4982203;28;20322;-68
2022/12/31 04:23:37;;;;;;;385.73;104.90;;;;;;;;;;4990327;28;20224;-68
2022/12/31 04:26:03;;;;;;;507.63;145.67;;;;;;;;;;4979565;28;20563;-68
2022/12/31 04:28:29;;;;;;;401.73;110.53;;;;;;;;;;4988086;28;20392;-68
2022/12/31 04:30:55;;;;;;;442.77;124.80;;;;;;;;;;4985202;28;20308;-68
2022/12/31 04:33:21;;;;;;;386.30;112.40;;;;;;;;;;4981379;28;20221;-67
2022/12/31 04:35:47;;;;;;;432.27;116.70;;;;;;;;;;4975320;28;20271;-68
2022/12/31 04:38:13;;;;;;;447.57;123.97;;;;;;;;;;4986743;28;20212;-67
2022/12/31 04:41:15;;;;;;;445.00;118.77;;;;;;;;;;4984324;28;20263;-68
2022/12/31 04:43:25;;;;;;;484.50;136.60;;;;;;;;;;4981472;28;20274;-68
2022/12/31 04:45:51;;;;;;;337.40;93.97;;;;;;;;;;4981391;28;20283;-68
2022/12/31 04:48:17;;;;;;;451.63;128.80;;;;;;;;;;4978714;28;20236;-68
2022/12/31 04:50:46;;;;;;;383.77;105.70;;;;;;;;;;4980809;28;20709;-68
2022/12/31 04:53:12;;;;;;;515.97;133.03;;;;;;;;;;4990033;28;20231;-68
2022/12/31 04:55:40;;;;;;;434.23;118.33;;;;;;;;;;4977998;28;20611;-68
2022/12/31 04:58:06;;;;;;;507.73;137.33;;;;;;;;;;4981256;28;20472;-69
2022/12/31 05:00:32;;;;;;;407.07;104.20;;;;;;;;;;4982877;28;20582;-68
2022/12/31 05:02:59;;;;;;;416.53;111.47;;;;;;;;;;4979656;28;20326;-68
2022/12/31 05:05:24;;;;;;;463.10;118.33;;;;;;;;;;4979835;28;20243;-68
2022/12/31 05:07:51;;;;;;;408.50;112.60;;;;;;;;;;4979949;28;20648;-68
2022/12/31 05:10:17;;;;;;;418.50;111.00;;;;;;;;;;4979874;28;20212;-68
2022/12/31 05:12:43;;;;;;;422.93;112.50;;;;;;;;;;4981783;28;20301;-68
2022/12/31 05:15:09;;;;;;;513.67;144.93;;;;;;;;;;4977135;28;20483;-68
2022/12/31 05:17:35;;;;;;;392.83;105.63;;;;;;;;;;4989197;28;21875;-68
2022/12/31 05:20:01;;;;;;;482.57;130.83;;;;;;;;;;4988752;28;20224;-68
2022/12/31 05:22:30;;;;;;;443.60;119.30;;;;;;;;;;4978818;28;20216;-68
2022/12/31 05:24:56;;;;;;;348.73;97.63;;;;;;;;;;4982456;28;20340;-68
2022/12/31 05:27:23;;;;;;;422.03;118.77;;;;;;;;;;4984361;28;20262;-68
2022/12/31 05:29:49;;;;;;;416.67;118.13;;;;;;;;;;4982265;28;20247;-68
2022/12/31 05:32:15;;;;;;;452.83;116.07;;;;;;;;;;4981673;28;20316;-67
2022/12/31 05:34:40;;;;;;;465.93;124.80;;;;;;;;;;4979065;28;20189;-68
2022/12/31 05:37:06;;;;;;;454.53;119.53;;;;;;;;;;4988949;28;20201;-68
2022/12/31 05:39:32;;;;;;;364.00;106.50;;;;;;;;;;4977300;28;20765;-68
2022/12/31 05:41:59;;;;;;;379.27;108.50;;;;;;;;;;4980357;28;20794;-67
2022/12/31 05:44:24;;;;;;;409.10;110.00;;;;;;;;;;4975911;28;20227;-68
2022/12/31 05:46:50;;;;;;;404.50;113.57;;;;;;;;;;4975536;28;20189;-68
2022/12/31 05:49:17;;;;;;;449.37;118.00;;;;;;;;;;4984076;28;20822;-68
2022/12/31 05:51:43;;;;;;;421.43;113.60;;;;;;;;;;4978439;28;20224;-68
2022/12/31 05:54:09;;;;;;;460.67;121.13;;;;;;;;;;4986694;28;22062;-68
2022/12/31 05:56:34;;;;;;;361.80;100.97;;;;;;;;;;4976886;28;20343;-68
2022/12/31 05:59:00;;;;;;;469.03;121.63;;;;;;;;;;4980824;28;20295;-68
2022/12/31 06:01:26;;;;;;;474.87;130.63;;;;;;;;;;4984950;28;20273;-68
2022/12/31 06:03:52;;;;;;;452.10;121.47;;;;;;;;;;4979060;28;20708;-68
2022/12/31 06:06:18;;;;;;;432.23;110.37;;;;;;;;;;4979107;28;20366;-68
2022/12/31 06:08:48;;;;;;;421.60;116.80;;;;;;;;;;4984009;28;20217;-68
2022/12/31 06:11:14;;;;;;;516.00;136.87;;;;;;;;;;4978227;28;20217;-68
2022/12/31 06:13:40;;;;;;;423.53;112.00;;;;;;;;;;4982096;28;20196;-68
2022/12/31 06:16:07;;;;;;;514.37;137.67;;;;;;;;;;4977058;28;22101;-68
2022/12/31 06:18:33;;;;;;;438.37;124.47;;;;;;;;;;4985674;28;20598;-67
2022/12/31 06:20:59;;;;;;;400.97;113.13;;;;;;;;;;4979093;28;20244;-68
2022/12/31 06:23:25;;;;;;;416.63;117.27;;;;;;;;;;4983151;28;20224;-68
2022/12/31 06:25:51;;;;;;;479.00;130.77;;;;;;;;;;4975641;28;20351;-68
2022/12/31 06:28:17;;;;;;;459.40;127.50;;;;;;;;;;4984297;28;20764;-68
2022/12/31 06:30:43;;;;;;;412.10;107.20;;;;;;;;;;4977503;28;20283;-68
2022/12/31 06:33:09;;;;;;;486.03;128.67;;;;;;;;;;4981489;28;20458;-68
2022/12/31 06:35:35;;;;;;;423.30;112.10;;;;;;;;;;4984583;28;20279;-68
2022/12/31 06:38:01;;;;;;;434.37;126.17;;;;;;;;;;4980441;28;20220;-67
2022/12/31 06:40:27;;;;;;;395.33;111.50;;;;;;;;;;4978192;28;20211;-68
2022/12/31 06:42:53;;;;;;;407.60;118.30;;;;;;;;;;4973701;28;20351;-68
2022/12/31 06:45:20;;;;;;;460.07;118.50;;;;;;;;;;4981317;28;20424;-68
2022/12/31 06:47:45;;;;;;;361.03;105.10;;;;;;;;;;4988648;28;20229;-68
2022/12/31 06:50:12;;;;;;;531.83;142.83;;;;;;;;;;4978292;28;20220;-67
2022/12/31 06:52:38;;;;;;;451.50;129.77;;;;;;;;;;4987419;28;20311;-68
2022/12/31 06:55:04;;;;;;;549.43;167.53;;;;;;;;;;4993479;28;20730;-68
2022/12/31 06:57:31;;;;;;;492.50;133.57;;;;;;;;;;4994431;28;20664;-69
2022/12/31 06:59:57;;;;;;;525.07;155.60;;;;;;;;;;4990218;28;20752;-69
2022/12/31 07:02:31;;;;;;;476.63;139.87;;;;;;;;;;4984787;28;20228;-70
2022/12/31 07:05:11;;;;;;;475.17;125.00;;;;;;;;;;4974689;28;20275;-66
2022/12/31 07:07:46;;;;;;;459.60;129.13;;;;;;;;;;4971399;28;20653;-66
2022/12/31 07:10:27;;;;;;;524.27;142.27;;;;;;;;;;4979779;28;20745;-66
2022/12/31 07:13:05;;;;;;;426.10;113.37;;;;;;;;;;4980993;28;20323;-66
2022/12/31 07:15:31;;;;;;;499.43;142.17;;;;;;;;;;4971644;28;20821;-66
2022/12/31 07:18:06;;;;;;;511.60;143.93;;;;;;;;;;4952151;28;20236;-66
2022/12/31 07:20:32;;;;;;;483.53;132.00;;;;;;;;;;4979785;28;20670;-66
2022/12/31 07:22:58;;;;;;;450.90;117.20;;;;;;;;;;4977554;28;20841;-66
2022/12/31 07:25:24;;;;;;;473.00;131.33;;;;;;;;;;4983559;28;20275;-66
2022/12/31 07:27:58;;;;;;;416.63;119.47;;;;;;;;;;4995898;28;20310;-66
2022/12/31 07:30:28;;;;;;;491.30;139.33;;;;;;;;;;4981573;28;20665;-66
2022/12/31 07:33:10;;;;;;;438.43;126.13;;;;;;;;;;4980209;28;20507;-65
2022/12/31 07:35:49;;;;;;;441.03;128.10;;;;;;;;;;4975045;28;21235;-65
2022/12/31 07:38:23;;;;;;;477.87;130.97;;;;;;;;;;4976360;28;20219;-66
2022/12/31 07:41:01;;;;;;;457.63;125.30;;;;;;;;;;4978486;28;20607;-66
2022/12/31 07:43:44;;;;;;;469.00;128.20;;;;;;;;;;4983054;28;20235;-66
2022/12/31 07:46:15;;;;;;;480.83;130.87;;;;;;;;;;4983288;28;20290;-66
2022/12/31 07:48:41;;;;;;;518.33;150.47;;;;;;;;;;4979230;28;20248;-66
2022/12/31 07:51:11;;;;;;;539.87;163.03;;;;;;;;;;4970046;28;20740;-66
2022/12/31 07:53:37;;;;;;;481.23;144.00;;;;;;;;;;4978826;28;20946;-66
2022/12/31 07:56:05;;;;;;;565.40;169.03;;;;;;;;;;4973899;28;20491;-66
2022/12/31 07:58:34;;;;;;;497.97;145.80;;;;;;;;;;4973028;28;20716;-66
2022/12/31 08:01:01;;;;;;;612.00;175.83;;;;;;;;;;4975522;28;20318;-66
2022/12/31 08:03:40;;;;;;;469.77;148.00;;;;;;;;;;4972402;28;20251;-66
2022/12/31 08:06:11;;;;;;;579.77;171.17;;;;;;;;;;4979700;28;20326;-66
2022/12/31 08:08:58;;;;;;;467.93;132.10;;;;;;;;;;4975677;28;21757;-66
2022/12/31 08:11:40;;;;;;;564.53;158.47;;;;;;;;;;4973237;28;20456;-66
2022/12/31 08:14:11;;;;;;;531.97;151.07;;;;;;;;;;4983340;28;20212;-67
2022/12/31 08:16:37;;;;;;;423.57;128.33;;;;;;;;;;4989542;28;20541;-68
2022/12/31 08:19:03;;;;;;;427.13;120.60;;;;;;;;;;4978074;28;20366;-69
2022/12/31 08:21:46;;;;;;;572.03;172.67;;;;;;;;;;4965960;28;20609;-67
2022/12/31 08:24:12;;;;;;;553.03;181.20;;;;;;;;;;4972636;28;20329;-67
2022/12/31 08:26:53;;;;;;;490.50;144.17;;;;;;;;;;4980294;28;20295;-67
2022/12/31 08:29:43;;;;;;;405.13;117.37;;;;;;;;;;4995161;28;20289;-66
2022/12/31 08:32:12;;;;;;;401.67;121.17;;;;;;;;;;5005563;28;20217;-65
2022/12/31 08:34:44;;;;;;;355.23;107.90;;;;;;;;;;4992086;28;20185;-66
2022/12/31 08:37:12;;;;;;;472.83;130.90;;;;;;;;;;4998326;28;20513;-65
2022/12/31 08:39:38;;;;;;;505.10;149.03;;;;;;;;;;4998473;28;20440;-66
2022/12/31 08:42:08;;;;;;;489.83;150.37;;;;;;;;;;4982493;28;20399;-65
2022/12/31 08:44:47;;;;;;;485.50;147.73;;;;;;;;;;4999065;28;20257;-65
2022/12/31 08:47:21;;;;;;;475.00;150.37;;;;;;;;;;4992093;28;20273;-64
2022/12/31 08:49:47;;;;;;;450.87;147.87;;;;;;;;;;4989474;28;20673;-65
2022/12/31 08:52:19;;;;;;;458.07;151.10;;;;;;;;;;4983959;28;20667;-65
2022/12/31 08:54:45;;;;;;;510.10;178.90;;;;;;;;;;4986991;28;20636;-65
2022/12/31 08:57:14;;;;;;;500.10;196.57;;;;;;;;;;4982432;28;20367;-66
2022/12/31 08:59:49;;;;;;;391.60;180.57;;;;;;;;;;5006941;28;20295;-66
2022/12/31 09:02:25;;;;;;;469.27;198.80;;;;;;;;;;5003109;28;20231;-65
2022/12/31 09:04:58;;;;;;;429.67;200.80;;;;;;;;;;4996877;28;20189;-66
2022/12/31 09:07:31;;;;;;;576.97;251.73;;;;;;;;;;5005812;28;20279;-65
2022/12/31 09:10:00;;;;;;;554.30;277.20;;;;;;;;;;4998361;28;20301;-67
2022/12/31 09:12:35;;;;;;;608.50;278.23;;;;;;;;;;4991430;28;20239;-67
2022/12/31 09:15:13;;;;;;;651.93;307.90;;;;;;;;;;5004325;28;20341;-69
2022/12/31 09:17:42;;;;;;;636.10;291.47;;;;;;;;;;4990882;28;20220;-68
2022/12/31 09:20:17;;;;;;;756.23;355.60;;;;;;;;;;4996780;28;20754;-68
2022/12/31 09:22:43;;;;;;;609.17;294.27;;;;;;;;;;4996821;28;20299;-68
2022/12/31 09:25:13;;;;;;;632.07;293.37;;;;;;;;;;4994821;28;20184;-66
2022/12/31 09:27:46;;;;;;;635.73;298.83;;;;;;;;;;4999953;28;20635;-65
2022/12/31 09:30:13;;;;;;;630.37;304.70;;;;;;;;;;4983732;28;20270;-66
2022/12/31 09:32:49;;;;;;;700.13;323.03;;;;;;;;;;4981509;28;20324;-68
2022/12/31 09:35:34;;;;;;;622.17;304.00;;;;;;;;;;4996501;28;20272;-67
2022/12/31 09:38:14;;;;;;;639.43;311.93;;;;;;;;;;4971311;28;20212;-68
2022/12/31 09:41:00;;;;;;;675.93;319.77;;;;;;;;;;4979258;28;20203;-67
2022/12/31 09:43:26;;;;;;;654.30;316.80;;;;;;;;;;4974730;28;20235;-67
2022/12/31 09:46:12;;;;;;;627.13;294.73;;;;;;;;;;4975114;28;20217;-67
2022/12/31 09:48:57;;;;;;;696.07;330.87;;;;;;;;;;4975496;28;20204;-67
2022/12/31 09:51:42;;;;;;;719.33;342.03;;;;;;;;;;4974144;28;20424;-67
2022/12/31 09:54:25;;;;;;;704.40;339.37;;;;;;;;;;4979424;28;20224;-68
2022/12/31 09:57:24;;;;;;;691.57;327.80;;;;;;;;;;4978131;28;20204;-66
2022/12/31 10:00:09;;;;;;;638.43;300.80;;;;;;;;;;4963502;28;20302;-68
2022/12/31 10:02:54;;;;;;;650.93;324.10;;;;;;;;;;4992899;28;20618;-68
2022/12/31 10:05:39;;;;;;;692.00;321.73;;;;;;;;;;4991650;28;20216;-67
2022/12/31 10:08:24;;;;;;;669.77;318.20;;;;;;;;;;4979952;28;20530;-67
2022/12/31 10:10:52;;;;;;;668.73;322.63;;;;;;;;;;4977838;28;20204;-67
2022/12/31 10:13:29;;;;;;;728.53;340.90;;;;;;;;;;4972774;28;20294;-67
2022/12/31 10:15:59;;;;;;;757.67;360.50;;;;;;;;;;4968108;28;20282;-67
2022/12/31 10:18:45;;;;;;;727.73;347.43;;;;;;;;;;4972480;28;20642;-66
2022/12/31 10:21:17;;;;;;;695.03;332.97;;;;;;;;;;4977463;28;20804;-66
2022/12/31 10:23:55;;;;;;;708.00;345.90;;;;;;;;;;4976113;28;20304;-67
2022/12/31 10:26:27;;;;;;;719.83;348.90;;;;;;;;;;4968882;28;20852;-67
2022/12/31 10:29:05;;;;;;;729.43;342.90;;;;;;;;;;4977232;28;20349;-67
2022/12/31 10:31:39;;;;;;;710.73;338.53;;;;;;;;;;4972643;28;20255;-66
2022/12/31 10:34:25;;;;;;;657.73;314.53;;;;;;;;;;4972409;28;20524;-67
2022/12/31 10:37:03;;;;;;;650.13;313.20;;;;;;;;;;4977527;28;20261;-66
2022/12/31 10:39:38;;;;;;;694.97;329.23;;;;;;;;;;4977519;28;20222;-67
2022/12/31 10:42:06;;;;;;;609.60;308.97;;;;;;;;;;4962337;28;20289;-66
2022/12/31 10:44:38;;;;;;;648.00;316.13;;;;;;;;;;4973610;28;21161;-66
2022/12/31 10:47:23;;;;;;;747.00;366.23;;;;;;;;;;4962702;28;20696;-66
2022/12/31 10:50:01;;;;;;;691.60;336.37;;;;;;;;;;4978287;28;20192;-66
2022/12/31 10:52:33;;;;;;;640.23;311.40;;;;;;;;;;4972256;28;20283;-67
2022/12/31 10:55:02;;;;;;;773.93;369.40;;;;;;;;;;4966169;28;20253;-66
2022/12/31 10:57:36;;;;;;;654.27;328.30;;;;;;;;;;4981668;28;20282;-68
2022/12/31 11:00:02;;;;;;;664.77;329.53;;;;;;;;;;4971749;28;20228;-68
2022/12/31 11:02:31;;;;;;;656.77;328.87;;;;;;;;;;4991969;28;20579;-69
2022/12/31 11:05:16;;;;;;;681.47;334.73;;;;;;;;;;4981253;28;20519;-70
2022/12/31 11:08:00;;;;;;;599.17;255.17;;;;;;;;;;5013898;23;20247;-72
2022/12/31 11:10:32;;;;;;;486.33;219.73;;;;;;;;;;5012949;28;20199;-72
2022/12/31 11:13:17;;;;;;;462.08;208.82;;;;;;;;;;5010910;28;20274;-72
2022/12/31 11:16:19;;;;;;;513.10;216.23;;;;;;;;;;5005742;28;20746;-70
2022/12/31 11:19:04;;;;;;;476.10;208.50;;;;;;;;;;4969999;28;20267;-70
2022/12/31 11:21:36;;;;;;;557.60;243.43;;;;;;;;;;5014476;23;20236;-57
2022/12/31 11:24:05;;;;;;;662.25;283.23;;;;;;;;;;4988791;28;20697;-58
2022/12/31 11:26:31;;;;;;;660.33;290.27;;;;;;;;;;4990197;28;20577;-58
2022/12/31 11:29:16;;;;;;;683.37;287.70;;;;;;;;;;5000346;28;20204;-58
2022/12/31 11:32:00;;;;;;;606.47;272.90;;;;;;;;;;4982565;28;20269;-58
2022/12/31 11:34:45;;;;;;;637.13;273.58;;;;;;;;;;4990240;28;20196;-58
2022/12/31 11:37:29;;;;;;;596.47;268.23;;;;;;;;;;4986864;28;20605;-58
2022/12/31 11:39:58;;;;;;;615.97;272.63;;;;;;;;;;4983281;28;20652;-58
2022/12/31 11:42:44;;;;;;;601.73;271.87;;;;;;;;;;4975903;28;20215;-58
2022/12/31 11:45:10;;;;;;;657.20;278.95;;;;;;;;;;4970264;28;20208;-58
2022/12/31 11:47:47;;;;;;;672.30;291.70;;;;;;;;;;4982011;28;20795;-58
2022/12/31 11:50:32;;;;;;;666.05;295.42;;;;;;;;;;4985691;28;20298;-58
2022/12/31 11:53:07;;;;;;;676.80;295.17;;;;;;;;;;4964963;28;20279;-58
2022/12/31 11:55:50;;;;;;;631.00;271.83;;;;;;;;;;4972479;28;20217;-58
2022/12/31 11:58:19;;;;;;;663.00;297.25;;;;;;;;;;4979218;28;20313;-59
2022/12/31 12:01:08;;;;;;;723.67;318.90;;;;;;;;;;4972074;28;20212;-58
2022/12/31 12:03:39;;;;;;;803.37;363.70;;;;;;;;;;4971706;28;20277;-58
2022/12/31 12:06:07;;;;;;;794.70;358.53;;;;;;;;;;4978687;28;20745;-59
2022/12/31 12:08:33;;;;;;;727.80;322.73;;;;;;;;;;4970431;28;20204;-58
2022/12/31 12:11:03;;;;;;;750.03;327.47;;;;;;;;;;4978396;28;20797;-58
2022/12/31 12:13:29;;;;;;;798.63;352.50;;;;;;;;;;4982473;28;20185;-59
2022/12/31 12:15:59;;;;;;;806.83;355.03;;;;;;;;;;4980055;28;20693;-59
2022/12/31 12:18:25;;;;;;;769.77;350.17;;;;;;;;;;4985249;28;20219;-58
2022/12/31 12:20:51;;;;;;;785.83;351.00;;;;;;;;;;4974643;28;20213;-59
2022/12/31 12:23:27;;;;;;;784.03;345.90;;;;;;;;;;4968647;28;20812;-58
2022/12/31 12:25:53;;;;;;;691.90;303.00;;;;;;;;;;4977794;28;20224;-58
2022/12/31 12:28:20;;;;;;;779.17;351.50;;;;;;;;;;4975035;28;20677;-57
2022/12/31 12:30:52;;;;;;;725.27;321.70;;;;;;;;;;4973507;28;20310;-57
2022/12/31 12:33:19;;;;;;;723.93;319.70;;;;;;;;;;4980746;28;20286;-56
2022/12/31 12:35:45;;;;;;;718.17;323.40;;;;;;;;;;4981865;28;20212;-56
2022/12/31 12:38:16;;;;;;;797.70;358.03;;;;;;;;;;4966213;28;20212;-56
2022/12/31 12:40:51;;;;;;;755.00;333.63;;;;;;;;;;4971348;28;20189;-57
2022/12/31 12:43:22;;;;;;;741.50;319.90;;;;;;;;;;4977738;28;20208;-56
2022/12/31 12:45:48;;;;;;;689.80;301.17;;;;;;;;;;4963330;28;20212;-58
2022/12/31 12:48:32;;;;;;;778.70;347.87;;;;;;;;;;4979704;28;20227;-56
2022/12/31 12:50:59;;;;;;;769.50;341.37;;;;;;;;;;4981650;28;20331;-56
2022/12/31 12:53:44;;;;;;;750.40;332.80;;;;;;;;;;4968428;28;20220;-58
2022/12/31 12:56:16;;;;;;;708.77;310.37;;;;;;;;;;4970107;28;20699;-57
2022/12/31 12:58:44;;;;;;;743.30;330.30;;;;;;;;;;4975495;28;20177;-57
2022/12/31 13:01:33;;;;;;;920.03;406.13;;;;;;;;;;4945656;28;20182;-51
2022/12/31 13:03:59;;;;;;;873.97;380.73;;;;;;;;;;4966660;28;20261;-52
2022/12/31 13:06:25;;;;;;;743.90;320.80;;;;;;;;;;4945916;28;20235;-52
2022/12/31 13:08:57;;;;;;;859.10;378.45;;;;;;;;;;4967641;28;20601;-52
2022/12/31 13:11:25;;;;;;;699.03;309.57;;;;;;;;;;4951012;28;20224;-57
2022/12/31 13:13:51;;;;;;;708.60;315.63;;;;;;;;;;4964620;28;20192;-57
2022/12/31 13:16:17;;;;;;;848.67;370.97;;;;;;;;;;4964433;28;20201;-57
2022/12/31 13:19:02;;;;;;;681.05;306.05;;;;;;;;;;4967548;28;20290;-57
2022/12/31 13:21:34;;;;;;;870.27;394.07;;;;;;;;;;4951877;28;20856;-57
2022/12/31 13:24:38;;;;;;;795.67;347.30;;;;;;;;;;4953446;28;20410;-57
2022/12/31 13:27:17;;;;;;;890.00;400.53;;;;;;;;;;4898658;28;20253;-57
2022/12/31 13:29:43;;;;;;;728.65;328.52;;;;;;;;;;4920748;28;20221;-57
2022/12/31 13:32:12;;;;;;;714.67;313.60;;;;;;;;;;4931141;28;20220;-57
2022/12/31 13:34:40;;;;;;;725.23;309.77;;;;;;;;;;4969085;28;20285;-57
2022/12/31 13:37:14;;;;;;;746.80;329.03;;;;;;;;;;4957700;28;20180;-57
2022/12/31 13:39:41;;;;;;;763.37;331.60;;;;;;;;;;4970111;28;20602;-58
2022/12/31 13:42:20;;;;;;;704.00;307.27;;;;;;;;;;4971680;28;20816;-57
2022/12/31 13:44:51;;;;;;;806.83;364.30;;;;;;;;;;4970164;28;20223;-57
2022/12/31 13:47:24;;;;;;;730.37;323.00;;;;;;;;;;4957826;28;20246;-57
2022/12/31 13:50:02;;;;;;;759.67;332.47;;;;;;;;;;4970946;28;20786;-57
2022/12/31 13:52:54;;;;;;;779.50;343.00;;;;;;;;;;4970098;28;20204;-57
2022/12/31 13:55:23;;;;;;;720.90;314.53;;;;;;;;;;4973693;28;20826;-57
2022/12/31 13:58:10;;;;;;;821.63;367.43;;;;;;;;;;4956241;28;20220;-57
2022/12/31 14:00:40;;;;;;;676.40;303.00;;;;;;;;;;4955761;28;20597;-57
2022/12/31 14:03:21;;;;;;;723.13;317.27;;;;;;;;;;4959858;28;20221;-57
2022/12/31 14:06:07;;;;;;;804.53;349.23;;;;;;;;;;4960007;28;21581;-57
2022/12/31 14:08:33;;;;;;;694.13;301.87;;;;;;;;;;4950972;28;20485;-57
2022/12/31 14:11:18;;;;;;;738.17;329.10;;;;;;;;;;4959284;28;20864;-57
2022/12/31 14:13:44;;;;;;;827.20;377.23;;;;;;;;;;4946819;28;20616;-57
2022/12/31 14:16:46;;;;;;;750.47;327.40;;;;;;;;;;4959394;28;20188;-57
2022/12/31 14:19:12;;;;;;;789.00;342.83;;;;;;;;;;4891506;28;20233;-57
2022/12/31 14:21:48;;;;;;;878.33;393.43;;;;;;;;;;4947770;28;20287;-57
2022/12/31 14:24:33;;;;;;;775.10;346.23;;;;;;;;;;4943554;28;20511;-57
2022/12/31 14:27:02;;;;;;;730.30;322.17;;;;;;;;;;4971162;28;20220;-57
2022/12/31 14:29:34;;;;;;;675.23;295.67;;;;;;;;;;4966971;28;20541;-57
2022/12/31 14:32:13;;;;;;;864.97;379.33;;;;;;;;;;4938579;28;20293;-57
2022/12/31 14:34:39;;;;;;;827.67;364.57;;;;;;;;;;4941821;28;20616;-57